Aérodrome :
LOGIN :

S'inscrire | Disclaimer

   EN    FR    IT 

 










Légende :    VFR   VFR Marginal   IFR   IFR Intensif   IFR Très Intensif
Visi : 
Plafond : 
>= 8 km
>= 3000ft
5 à 8 km
1000 à 3000 ft
1500m à 5 km
500 à 1000 ft
800 à 1500m
200 à 500 ft
< 800m
< 200 ft
Symboles :   Orages  Brouillard  Fortes neiges  Fortes précipitations  Vent > 20 kt
SIGMETs :   Divers  Orages  Givrage  Turbulence  Onde Orograph.  Cendres Volcan.







- Altitude de l'aérodrome : 1306 ft
- Code IATA : ACH


LSZR - Alten Rhein

DERNIER METAR :
  • 301220Z 29006KT 260V320 CAVOK 13/02 Q1010 NOSIG RMK G

METARs EXPIRÉS :
  • 301150Z 29006KT CAVOK 13/M00 Q1010 NOSIG RMK G
  • 301120Z 29006KT CAVOK 12/03 Q1011 NOSIG RMK F
  • 301050Z 28005KT 240V310 CAVOK 11/03 Q1011 NOSIG RMK E
  • 301020Z 29006KT 250V340 CAVOK 10/04 Q1012 NOSIG RMK D
  • 300950Z 28007KT CAVOK 09/05 Q1012 NOSIG RMK C

TAF TAF LSZR
Valide du 30 à 12h jusqu'au 30 à 21h UTC


301125Z 3012/3021 29006KT CAVOK
ATIS : +41 71 858 51 66
Pas de NOTAMs connus pour ce terrain.



MET'MAP, la Météo Aéronautique d'un coup d'oeil ! - Copyright ORBIFLY Décembre 2007 - Disclaimer

ORBIFLY MET'MAP TEAM :

Programmation & Développement : Alexandra Zaïnal
Conception & Développement : Baudouin d'Aumeries
Co-Programmation & Développement : Marc-Olivier Méhu
Soutien technique & logistique : Manuel Goepfert

Contact : metmap@orbifly.com




SOURCES & CREDITS :

   NOAA